sensor_id;sensor_type;location;lat;lon;timestamp;temperature;humidity
43995;DHT22;51687;52.160;5.298;2023-02-04T00:00:05;13.80;55.60
43995;DHT22;51687;52.160;5.298;2023-02-04T00:02:33;13.80;55.90
43995;DHT22;51687;52.160;5.298;2023-02-04T00:05:00;13.80;55.80
43995;DHT22;51687;52.160;5.298;2023-02-04T00:07:27;13.80;55.90
43995;DHT22;51687;52.160;5.298;2023-02-04T00:09:53;13.80;56.10
43995;DHT22;51687;52.160;5.298;2023-02-04T00:12:20;13.80;56.30
43995;DHT22;51687;52.160;5.298;2023-02-04T00:14:47;13.80;56.40
43995;DHT22;51687;52.160;5.298;2023-02-04T00:17:14;13.80;56.50
43995;DHT22;51687;52.160;5.298;2023-02-04T00:19:40;13.80;56.60
43995;DHT22;51687;52.160;5.298;2023-02-04T00:22:07;13.80;56.70
43995;DHT22;51687;52.160;5.298;2023-02-04T00:24:35;13.80;56.80
43995;DHT22;51687;52.160;5.298;2023-02-04T00:27:03;13.80;56.80
43995;DHT22;51687;52.160;5.298;2023-02-04T00:29:30;13.70;56.80
43995;DHT22;51687;52.160;5.298;2023-02-04T00:31:57;13.80;56.80
43995;DHT22;51687;52.160;5.298;2023-02-04T00:34:24;13.70;57.00
43995;DHT22;51687;52.160;5.298;2023-02-04T00:36:51;13.70;57.10
43995;DHT22;51687;52.160;5.298;2023-02-04T00:39:18;13.70;57.10
43995;DHT22;51687;52.160;5.298;2023-02-04T00:41:44;13.70;57.40
43995;DHT22;51687;52.160;5.298;2023-02-04T00:44:11;13.60;57.40
43995;DHT22;51687;52.160;5.298;2023-02-04T00:46:40;13.60;57.40
43995;DHT22;51687;52.160;5.298;2023-02-04T00:49:08;13.60;57.70
43995;DHT22;51687;52.160;5.298;2023-02-04T00:51:37;13.60;57.70
43995;DHT22;51687;52.160;5.298;2023-02-04T00:54:05;13.60;57.60
43995;DHT22;51687;52.160;5.298;2023-02-04T00:56:33;13.60;57.70
43995;DHT22;51687;52.160;5.298;2023-02-04T00:59:00;13.60;57.90
43995;DHT22;51687;52.160;5.298;2023-02-04T01:01:27;13.60;57.80
43995;DHT22;51687;52.160;5.298;2023-02-04T01:03:54;13.60;57.80
43995;DHT22;51687;52.160;5.298;2023-02-04T01:06:21;13.60;57.80
43995;DHT22;51687;52.160;5.298;2023-02-04T01:08:49;13.70;58.50
43995;DHT22;51687;52.160;5.298;2023-02-04T01:11:17;13.70;57.70
43995;DHT22;51687;52.160;5.298;2023-02-04T01:13:44;13.70;57.70
43995;DHT22;51687;52.160;5.298;2023-02-04T01:16:12;13.70;57.80
43995;DHT22;51687;52.160;5.298;2023-02-04T01:18:38;13.70;57.80
43995;DHT22;51687;52.160;5.298;2023-02-04T01:21:05;13.70;57.70
43995;DHT22;51687;52.160;5.298;2023-02-04T01:23:32;13.70;57.60
43995;DHT22;51687;52.160;5.298;2023-02-04T01:25:59;13.70;57.60
43995;DHT22;51687;52.160;5.298;2023-02-04T01:28:25;13.80;57.70
43995;DHT22;51687;52.160;5.298;2023-02-04T01:30:52;13.80;57.70
43995;DHT22;51687;52.160;5.298;2023-02-04T01:33:19;13.80;57.80
43995;DHT22;51687;52.160;5.298;2023-02-04T01:35:46;13.80;57.80
43995;DHT22;51687;52.160;5.298;2023-02-04T01:38:12;13.80;57.80
43995;DHT22;51687;52.160;5.298;2023-02-04T01:40:40;13.80;57.80
43995;DHT22;51687;52.160;5.298;2023-02-04T01:43:08;13.80;57.90
43995;DHT22;51687;52.160;5.298;2023-02-04T01:45:35;13.80;57.90
43995;DHT22;51687;52.160;5.298;2023-02-04T01:48:03;13.80;57.90
43995;DHT22;51687;52.160;5.298;2023-02-04T01:50:30;13.80;58.00
43995;DHT22;51687;52.160;5.298;2023-02-04T01:52:58;13.80;57.90
43995;DHT22;51687;52.160;5.298;2023-02-04T01:55:27;13.80;58.10
43995;DHT22;51687;52.160;5.298;2023-02-04T01:57:54;13.70;58.10
43995;DHT22;51687;52.160;5.298;2023-02-04T02:00:25;13.80;58.30
43995;DHT22;51687;52.160;5.298;2023-02-04T02:02:52;13.80;58.40
43995;DHT22;51687;52.160;5.298;2023-02-04T02:05:30;13.80;58.50
43995;DHT22;51687;52.160;5.298;2023-02-04T02:07:59;13.80;58.50
43995;DHT22;51687;52.160;5.298;2023-02-04T02:10:27;13.90;58.50
43995;DHT22;51687;52.160;5.298;2023-02-04T02:12:55;13.90;58.40
43995;DHT22;51687;52.160;5.298;2023-02-04T02:15:23;13.90;58.50
43995;DHT22;51687;52.160;5.298;2023-02-04T02:17:51;13.90;58.70
43995;DHT22;51687;52.160;5.298;2023-02-04T02:20:21;13.80;58.70
43995;DHT22;51687;52.160;5.298;2023-02-04T02:25:36;13.90;58.80
43995;DHT22;51687;52.160;5.298;2023-02-04T02:28:08;13.90;58.70
43995;DHT22;51687;52.160;5.298;2023-02-04T02:30:35;13.90;58.80
43995;DHT22;51687;52.160;5.298;2023-02-04T02:33:03;13.90;58.80
43995;DHT22;51687;52.160;5.298;2023-02-04T02:35:30;13.90;58.70
43995;DHT22;51687;52.160;5.298;2023-02-04T02:37:57;13.90;58.80
43995;DHT22;51687;52.160;5.298;2023-02-04T02:40:24;13.90;58.90
43995;DHT22;51687;52.160;5.298;2023-02-04T02:42:52;13.90;58.80
43995;DHT22;51687;52.160;5.298;2023-02-04T02:45:25;13.90;58.90
43995;DHT22;51687;52.160;5.298;2023-02-04T02:47:53;13.90;58.80
43995;DHT22;51687;52.160;5.298;2023-02-04T02:50:22;13.90;58.90
43995;DHT22;51687;52.160;5.298;2023-02-04T02:52:51;13.90;58.90
43995;DHT22;51687;52.160;5.298;2023-02-04T02:55:20;13.90;58.80
43995;DHT22;51687;52.160;5.298;2023-02-04T02:57:48;13.90;58.60
43995;DHT22;51687;52.160;5.298;2023-02-04T03:00:22;13.90;58.60
43995;DHT22;51687;52.160;5.298;2023-02-04T03:02:57;13.90;58.50
43995;DHT22;51687;52.160;5.298;2023-02-04T03:05:26;13.90;58.60
43995;DHT22;51687;52.160;5.298;2023-02-04T03:07:54;13.90;58.60
43995;DHT22;51687;52.160;5.298;2023-02-04T03:10:20;13.90;58.70
43995;DHT22;51687;52.160;5.298;2023-02-04T03:12:47;13.90;58.50
43995;DHT22;51687;52.160;5.298;2023-02-04T03:15:14;13.90;58.60
43995;DHT22;51687;52.160;5.298;2023-02-04T03:17:42;13.90;58.70
43995;DHT22;51687;52.160;5.298;2023-02-04T03:20:11;13.90;58.70
43995;DHT22;51687;52.160;5.298;2023-02-04T03:22:39;13.90;58.50
43995;DHT22;51687;52.160;5.298;2023-02-04T03:25:06;13.90;58.50
43995;DHT22;51687;52.160;5.298;2023-02-04T03:27:33;13.90;58.40
43995;DHT22;51687;52.160;5.298;2023-02-04T03:30:00;13.90;58.40
43995;DHT22;51687;52.160;5.298;2023-02-04T03:32:27;13.90;58.30
43995;DHT22;51687;52.160;5.298;2023-02-04T03:34:53;14.00;58.10
43995;DHT22;51687;52.160;5.298;2023-02-04T03:37:20;14.00;57.90
43995;DHT22;51687;52.160;5.298;2023-02-04T03:39:47;14.00;58.00
43995;DHT22;51687;52.160;5.298;2023-02-04T03:42:13;13.90;57.60
43995;DHT22;51687;52.160;5.298;2023-02-04T03:44:40;13.90;57.70
43995;DHT22;51687;52.160;5.298;2023-02-04T03:47:07;13.90;57.70
43995;DHT22;51687;52.160;5.298;2023-02-04T03:49:33;13.90;57.60
43995;DHT22;51687;52.160;5.298;2023-02-04T03:52:02;13.90;57.70
43995;DHT22;51687;52.160;5.298;2023-02-04T03:54:29;13.90;57.80
43995;DHT22;51687;52.160;5.298;2023-02-04T03:56:57;14.00;57.80
43995;DHT22;51687;52.160;5.298;2023-02-04T03:59:24;14.10;57.60
43995;DHT22;51687;52.160;5.298;2023-02-04T04:01:51;14.10;57.40
43995;DHT22;51687;52.160;5.298;2023-02-04T04:04:18;14.10;57.10
43995;DHT22;51687;52.160;5.298;2023-02-04T04:06:45;14.10;56.90
43995;DHT22;51687;52.160;5.298;2023-02-04T04:09:11;14.00;56.80
43995;DHT22;51687;52.160;5.298;2023-02-04T04:11:38;14.00;56.80
43995;DHT22;51687;52.160;5.298;2023-02-04T04:14:04;13.90;57.00
43995;DHT22;51687;52.160;5.298;2023-02-04T04:16:31;14.00;57.00
43995;DHT22;51687;52.160;5.298;2023-02-04T04:18:58;14.00;56.70
43995;DHT22;51687;52.160;5.298;2023-02-04T04:21:25;14.00;56.50
43995;DHT22;51687;52.160;5.298;2023-02-04T04:23:51;14.00;56.40
43995;DHT22;51687;52.160;5.298;2023-02-04T04:26:18;13.90;56.20
43995;DHT22;51687;52.160;5.298;2023-02-04T04:28:45;13.90;56.20
43995;DHT22;51687;52.160;5.298;2023-02-04T04:31:12;14.00;56.10
43995;DHT22;51687;52.160;5.298;2023-02-04T04:33:39;14.00;56.00
43995;DHT22;51687;52.160;5.298;2023-02-04T04:36:07;14.00;55.70
43995;DHT22;51687;52.160;5.298;2023-02-04T04:38:34;13.90;55.50
43995;DHT22;51687;52.160;5.298;2023-02-04T04:41:00;13.90;55.80
43995;DHT22;51687;52.160;5.298;2023-02-04T04:43:27;13.90;55.90
43995;DHT22;51687;52.160;5.298;2023-02-04T04:45:54;13.90;55.90
43995;DHT22;51687;52.160;5.298;2023-02-04T04:48:20;13.90;55.60
43995;DHT22;51687;52.160;5.298;2023-02-04T04:50:47;13.90;55.60
43995;DHT22;51687;52.160;5.298;2023-02-04T04:53:14;14.00;55.80
43995;DHT22;51687;52.160;5.298;2023-02-04T04:55:41;14.20;56.00
43995;DHT22;51687;52.160;5.298;2023-02-04T04:58:08;14.30;55.80
43995;DHT22;51687;52.160;5.298;2023-02-04T05:00:34;14.50;55.40
43995;DHT22;51687;52.160;5.298;2023-02-04T05:03:01;14.60;55.00
43995;DHT22;51687;52.160;5.298;2023-02-04T05:07:55;14.80;54.90
43995;DHT22;51687;52.160;5.298;2023-02-04T05:10:23;15.00;54.20
43995;DHT22;51687;52.160;5.298;2023-02-04T05:12:50;15.10;54.20
43995;DHT22;51687;52.160;5.298;2023-02-04T05:15:18;15.20;53.80
43995;DHT22;51687;52.160;5.298;2023-02-04T05:22:40;15.30;53.30
43995;DHT22;51687;52.160;5.298;2023-02-04T05:25:07;15.50;53.00
43995;DHT22;51687;52.160;5.298;2023-02-04T05:27:33;15.60;52.80
43995;DHT22;51687;52.160;5.298;2023-02-04T05:32:27;15.60;52.70
43995;DHT22;51687;52.160;5.298;2023-02-04T05:34:54;15.60;52.40
43995;DHT22;51687;52.160;5.298;2023-02-04T05:37:21;15.70;52.30
43995;DHT22;51687;52.160;5.298;2023-02-04T05:39:47;15.70;52.40
43995;DHT22;51687;52.160;5.298;2023-02-04T05:42:14;15.80;52.20
43995;DHT22;51687;52.160;5.298;2023-02-04T05:44:41;15.80;52.20
43995;DHT22;51687;52.160;5.298;2023-02-04T06:55:52;15.80;52.10
43995;DHT22;51687;52.160;5.298;2023-02-04T06:58:19;16.10;50.80
43995;DHT22;51687;52.160;5.298;2023-02-04T07:00:45;16.10;50.50
43995;DHT22;51687;52.160;5.298;2023-02-04T07:03:12;16.10;50.40
43995;DHT22;51687;52.160;5.298;2023-02-04T07:05:39;16.10;50.30
43995;DHT22;51687;52.160;5.298;2023-02-04T07:08:06;16.10;50.30
43995;DHT22;51687;52.160;5.298;2023-02-04T07:10:46;16.10;50.30
43995;DHT22;51687;52.160;5.298;2023-02-04T07:13:12;16.10;50.40
43995;DHT22;51687;52.160;5.298;2023-02-04T07:15:39;16.10;50.30
43995;DHT22;51687;52.160;5.298;2023-02-04T07:18:06;16.10;50.30
43995;DHT22;51687;52.160;5.298;2023-02-04T07:20:33;16.10;50.40
43995;DHT22;51687;52.160;5.298;2023-02-04T07:23:00;16.10;49.70
43995;DHT22;51687;52.160;5.298;2023-02-04T07:32:49;16.00;49.80
43995;DHT22;51687;52.160;5.298;2023-02-04T07:35:15;15.20;51.50
43995;DHT22;51687;52.160;5.298;2023-02-04T07:40:11;15.10;52.10
43995;DHT22;51687;52.160;5.298;2023-02-04T07:42:38;14.70;52.90
43995;DHT22;51687;52.160;5.298;2023-02-04T07:45:05;14.60;53.30
43995;DHT22;51687;52.160;5.298;2023-02-04T07:47:31;14.50;53.90
43995;DHT22;51687;52.160;5.298;2023-02-04T07:49:58;14.40;54.20
43995;DHT22;51687;52.160;5.298;2023-02-04T07:52:25;14.30;54.70
43995;DHT22;51687;52.160;5.298;2023-02-04T07:54:51;14.20;55.00
43995;DHT22;51687;52.160;5.298;2023-02-04T07:57:19;14.10;55.20
43995;DHT22;51687;52.160;5.298;2023-02-04T07:59:46;14.00;55.60
43995;DHT22;51687;52.160;5.298;2023-02-04T08:02:13;13.90;56.10
43995;DHT22;51687;52.160;5.298;2023-02-04T08:04:39;13.90;56.40
43995;DHT22;51687;52.160;5.298;2023-02-04T08:07:06;13.80;56.40
43995;DHT22;51687;52.160;5.298;2023-02-04T08:09:33;13.80;56.70
43995;DHT22;51687;52.160;5.298;2023-02-04T08:12:00;13.70;57.10
43995;DHT22;51687;52.160;5.298;2023-02-04T08:14:26;13.70;57.50
43995;DHT22;51687;52.160;5.298;2023-02-04T08:16:53;13.60;57.60
43995;DHT22;51687;52.160;5.298;2023-02-04T08:19:20;13.60;57.80
43995;DHT22;51687;52.160;5.298;2023-02-04T08:21:47;13.60;58.10
43995;DHT22;51687;52.160;5.298;2023-02-04T08:24:14;13.50;58.30
43995;DHT22;51687;52.160;5.298;2023-02-04T08:26:41;13.50;58.60
43995;DHT22;51687;52.160;5.298;2023-02-04T08:29:08;13.50;58.80
43995;DHT22;51687;52.160;5.298;2023-02-04T08:31:36;13.40;59.00
43995;DHT22;51687;52.160;5.298;2023-02-04T08:34:04;13.50;59.20
43995;DHT22;51687;52.160;5.298;2023-02-04T08:36:31;13.40;59.50
43995;DHT22;51687;52.160;5.298;2023-02-04T08:38:58;13.30;60.00
43995;DHT22;51687;52.160;5.298;2023-02-04T08:41:25;13.20;60.40
43995;DHT22;51687;52.160;5.298;2023-02-04T08:43:52;13.10;60.80
43995;DHT22;51687;52.160;5.298;2023-02-04T08:46:18;13.00;61.30
43995;DHT22;51687;52.160;5.298;2023-02-04T08:48:46;13.00;61.60
43995;DHT22;51687;52.160;5.298;2023-02-04T08:51:13;12.90;62.00
43995;DHT22;51687;52.160;5.298;2023-02-04T08:53:40;13.00;62.10
43995;DHT22;51687;52.160;5.298;2023-02-04T08:56:07;12.90;62.30
43995;DHT22;51687;52.160;5.298;2023-02-04T08:58:35;13.00;62.30
43995;DHT22;51687;52.160;5.298;2023-02-04T09:01:02;13.00;62.40
43995;DHT22;51687;52.160;5.298;2023-02-04T09:03:29;13.00;62.60
43995;DHT22;51687;52.160;5.298;2023-02-04T09:05:56;13.00;62.70
43995;DHT22;51687;52.160;5.298;2023-02-04T09:08:22;13.00;62.70
43995;DHT22;51687;52.160;5.298;2023-02-04T09:10:49;13.00;62.80
43995;DHT22;51687;52.160;5.298;2023-02-04T09:13:16;13.00;62.80
43995;DHT22;51687;52.160;5.298;2023-02-04T09:15:43;13.10;63.00
43995;DHT22;51687;52.160;5.298;2023-02-04T09:18:10;13.10;63.10
43995;DHT22;51687;52.160;5.298;2023-02-04T09:20:42;13.10;63.00
43995;DHT22;51687;52.160;5.298;2023-02-04T09:23:10;13.10;63.10
43995;DHT22;51687;52.160;5.298;2023-02-04T09:25:42;13.10;63.40
43995;DHT22;51687;52.160;5.298;2023-02-04T09:28:09;13.10;63.40
43995;DHT22;51687;52.160;5.298;2023-02-04T09:30:38;13.10;63.20
43995;DHT22;51687;52.160;5.298;2023-02-04T09:33:05;13.20;63.10
43995;DHT22;51687;52.160;5.298;2023-02-04T09:35:33;13.20;63.10
43995;DHT22;51687;52.160;5.298;2023-02-04T09:38:00;13.20;62.90
43995;DHT22;51687;52.160;5.298;2023-02-04T09:40:35;13.20;62.90
43995;DHT22;51687;52.160;5.298;2023-02-04T09:43:04;13.10;63.00
43995;DHT22;51687;52.160;5.298;2023-02-04T09:45:35;13.20;63.20
43995;DHT22;51687;52.160;5.298;2023-02-04T09:48:03;13.20;63.10
43995;DHT22;51687;52.160;5.298;2023-02-04T09:50:31;13.20;62.80
43995;DHT22;51687;52.160;5.298;2023-02-04T09:53:00;13.20;62.80
43995;DHT22;51687;52.160;5.298;2023-02-04T09:55:32;13.20;62.80
43995;DHT22;51687;52.160;5.298;2023-02-04T09:58:00;13.20;62.90
43995;DHT22;51687;52.160;5.298;2023-02-04T10:00:29;13.20;62.70
43995;DHT22;51687;52.160;5.298;2023-02-04T10:02:59;13.30;61.30
43995;DHT22;51687;52.160;5.298;2023-02-04T10:05:31;13.30;60.60
43995;DHT22;51687;52.160;5.298;2023-02-04T10:07:59;13.30;60.20
43995;DHT22;51687;52.160;5.298;2023-02-04T10:10:26;13.40;60.20
43995;DHT22;51687;52.160;5.298;2023-02-04T10:12:56;13.40;60.20
43995;DHT22;51687;52.160;5.298;2023-02-04T10:15:24;13.40;60.50
43995;DHT22;51687;52.160;5.298;2023-02-04T10:17:54;13.40;60.30
43995;DHT22;51687;52.160;5.298;2023-02-04T10:20:24;13.40;60.20
43995;DHT22;51687;52.160;5.298;2023-02-04T10:22:53;13.40;60.20
43995;DHT22;51687;52.160;5.298;2023-02-04T10:25:23;13.50;60.20
43995;DHT22;51687;52.160;5.298;2023-02-04T10:27:57;13.50;60.30
43995;DHT22;51687;52.160;5.298;2023-02-04T10:30:30;13.50;59.70
43995;DHT22;51687;52.160;5.298;2023-02-04T10:33:10;13.50;59.20
43995;DHT22;51687;52.160;5.298;2023-02-04T10:35:44;13.60;59.00
43995;DHT22;51687;52.160;5.298;2023-02-04T10:38:11;13.60;58.50
43995;DHT22;51687;52.160;5.298;2023-02-04T10:40:38;13.60;58.60
43995;DHT22;51687;52.160;5.298;2023-02-04T10:43:21;13.60;58.30
43995;DHT22;51687;52.160;5.298;2023-02-04T10:46:02;13.70;58.40
43995;DHT22;51687;52.160;5.298;2023-02-04T10:48:39;13.70;59.10
43995;DHT22;51687;52.160;5.298;2023-02-04T10:51:11;13.70;58.90
43995;DHT22;51687;52.160;5.298;2023-02-04T10:53:39;13.70;58.40
43995;DHT22;51687;52.160;5.298;2023-02-04T10:56:24;13.70;58.40
43995;DHT22;51687;52.160;5.298;2023-02-04T10:58:51;13.80;58.60
43995;DHT22;51687;52.160;5.298;2023-02-04T11:01:17;13.80;58.40
43995;DHT22;51687;52.160;5.298;2023-02-04T11:03:44;13.90;58.80
43995;DHT22;51687;52.160;5.298;2023-02-04T11:06:19;13.90;58.50
43995;DHT22;51687;52.160;5.298;2023-02-04T11:08:46;13.90;58.70
43995;DHT22;51687;52.160;5.298;2023-02-04T11:11:19;14.00;58.50
43995;DHT22;51687;52.160;5.298;2023-02-04T11:18:47;14.00;57.20
43995;DHT22;51687;52.160;5.298;2023-02-04T11:24:23;14.00;56.80
43995;DHT22;51687;52.160;5.298;2023-02-04T11:27:22;14.00;57.00
43995;DHT22;51687;52.160;5.298;2023-02-04T11:29:49;14.10;57.70
43995;DHT22;51687;52.160;5.298;2023-02-04T11:32:30;14.10;57.60
43995;DHT22;51687;52.160;5.298;2023-02-04T11:35:23;14.20;56.10
43995;DHT22;51687;52.160;5.298;2023-02-04T11:37:50;14.20;57.10
43995;DHT22;51687;52.160;5.298;2023-02-04T11:42:59;14.30;54.80
43995;DHT22;51687;52.160;5.298;2023-02-04T11:45:34;14.30;54.00
43995;DHT22;51687;52.160;5.298;2023-02-04T11:48:09;14.40;53.80
43995;DHT22;51687;52.160;5.298;2023-02-04T11:50:37;14.40;53.60
43995;DHT22;51687;52.160;5.298;2023-02-04T11:53:04;14.50;53.30
43995;DHT22;51687;52.160;5.298;2023-02-04T11:55:34;14.50;53.20
43995;DHT22;51687;52.160;5.298;2023-02-04T11:58:01;14.50;53.30
43995;DHT22;51687;52.160;5.298;2023-02-04T12:00:31;14.60;52.10
43995;DHT22;51687;52.160;5.298;2023-02-04T12:03:03;14.60;51.90
43995;DHT22;51687;52.160;5.298;2023-02-04T12:05:42;14.60;52.20
43995;DHT22;51687;52.160;5.298;2023-02-04T12:08:12;14.70;52.10
43995;DHT22;51687;52.160;5.298;2023-02-04T12:11:06;14.70;52.90
43995;DHT22;51687;52.160;5.298;2023-02-04T12:13:56;14.70;52.30
43995;DHT22;51687;52.160;5.298;2023-02-04T12:16:24;14.80;53.10
43995;DHT22;51687;52.160;5.298;2023-02-04T12:18:50;14.80;52.50
43995;DHT22;51687;52.160;5.298;2023-02-04T12:21:17;14.80;53.00
43995;DHT22;51687;52.160;5.298;2023-02-04T12:33:34;14.90;53.40
43995;DHT22;51687;52.160;5.298;2023-02-04T12:38:28;14.90;53.00
43995;DHT22;51687;52.160;5.298;2023-02-04T12:40:55;15.00;52.50
43995;DHT22;51687;52.160;5.298;2023-02-04T12:43:22;15.00;52.20
43995;DHT22;51687;52.160;5.298;2023-02-04T12:45:48;15.00;51.80
43995;DHT22;51687;52.160;5.298;2023-02-04T12:48:15;15.00;52.90
43995;DHT22;51687;52.160;5.298;2023-02-04T12:50:42;15.00;52.10
43995;DHT22;51687;52.160;5.298;2023-02-04T12:53:09;15.00;52.40
43995;DHT22;51687;52.160;5.298;2023-02-04T12:55:36;14.90;52.40
43995;DHT22;51687;52.160;5.298;2023-02-04T12:58:03;15.00;53.00
43995;DHT22;51687;52.160;5.298;2023-02-04T13:00:30;15.00;53.30
43995;DHT22;51687;52.160;5.298;2023-02-04T13:02:58;15.00;53.30
43995;DHT22;51687;52.160;5.298;2023-02-04T13:05:25;15.10;53.90
43995;DHT22;51687;52.160;5.298;2023-02-04T13:07:53;15.10;53.50
43995;DHT22;51687;52.160;5.298;2023-02-04T13:10:20;15.10;52.80
43995;DHT22;51687;52.160;5.298;2023-02-04T13:12:49;15.10;53.20
43995;DHT22;51687;52.160;5.298;2023-02-04T13:15:16;15.10;53.50
43995;DHT22;51687;52.160;5.298;2023-02-04T13:17:42;15.20;54.10
43995;DHT22;51687;52.160;5.298;2023-02-04T13:20:09;15.10;53.60
43995;DHT22;51687;52.160;5.298;2023-02-04T13:22:36;15.10;53.40
43995;DHT22;51687;52.160;5.298;2023-02-04T13:25:04;15.20;53.20
43995;DHT22;51687;52.160;5.298;2023-02-04T13:27:31;15.10;53.10
43995;DHT22;51687;52.160;5.298;2023-02-04T13:29:58;15.20;53.20
43995;DHT22;51687;52.160;5.298;2023-02-04T13:32:25;15.20;53.10
43995;DHT22;51687;52.160;5.298;2023-02-04T13:34:52;15.20;53.40
43995;DHT22;51687;52.160;5.298;2023-02-04T13:37:18;15.20;52.90
43995;DHT22;51687;52.160;5.298;2023-02-04T13:39:45;15.20;52.90
43995;DHT22;51687;52.160;5.298;2023-02-04T13:42:12;15.20;53.00
43995;DHT22;51687;52.160;5.298;2023-02-04T13:44:38;15.20;51.80
43995;DHT22;51687;52.160;5.298;2023-02-04T13:47:05;15.20;52.30
43995;DHT22;51687;52.160;5.298;2023-02-04T13:49:32;15.20;52.80
43995;DHT22;51687;52.160;5.298;2023-02-04T13:51:59;15.20;51.80
43995;DHT22;51687;52.160;5.298;2023-02-04T13:54:26;15.20;52.20
43995;DHT22;51687;52.160;5.298;2023-02-04T13:56:52;15.20;52.50
43995;DHT22;51687;52.160;5.298;2023-02-04T13:59:19;15.20;53.40
43995;DHT22;51687;52.160;5.298;2023-02-04T14:01:47;15.20;52.90
43995;DHT22;51687;52.160;5.298;2023-02-04T14:04:14;15.20;52.60
43995;DHT22;51687;52.160;5.298;2023-02-04T14:06:41;15.20;52.60
43995;DHT22;51687;52.160;5.298;2023-02-04T14:09:11;15.20;52.80
43995;DHT22;51687;52.160;5.298;2023-02-04T14:11:38;15.20;52.90
43995;DHT22;51687;52.160;5.298;2023-02-04T14:14:05;15.20;52.70
43995;DHT22;51687;52.160;5.298;2023-02-04T14:16:32;15.20;52.80
43995;DHT22;51687;52.160;5.298;2023-02-04T14:19:02;15.20;52.50
43995;DHT22;51687;52.160;5.298;2023-02-04T14:21:29;15.20;52.90
43995;DHT22;51687;52.160;5.298;2023-02-04T14:23:55;15.20;52.80
43995;DHT22;51687;52.160;5.298;2023-02-04T14:26:23;15.20;52.00
43995;DHT22;51687;52.160;5.298;2023-02-04T14:28:50;15.20;52.10
43995;DHT22;51687;52.160;5.298;2023-02-04T14:31:17;15.20;52.20
43995;DHT22;51687;52.160;5.298;2023-02-04T14:33:44;15.20;52.10
43995;DHT22;51687;52.160;5.298;2023-02-04T14:36:13;15.20;52.50
43995;DHT22;51687;52.160;5.298;2023-02-04T14:38:39;15.20;52.30
43995;DHT22;51687;52.160;5.298;2023-02-04T14:41:06;15.20;51.90
43995;DHT22;51687;52.160;5.298;2023-02-04T14:43:33;15.20;52.30
43995;DHT22;51687;52.160;5.298;2023-02-04T14:46:03;15.20;52.50
43995;DHT22;51687;52.160;5.298;2023-02-04T14:48:31;15.20;51.60
43995;DHT22;51687;52.160;5.298;2023-02-04T14:50:58;15.20;52.50
43995;DHT22;51687;52.160;5.298;2023-02-04T14:53:25;15.20;52.00
43995;DHT22;51687;52.160;5.298;2023-02-04T14:55:51;15.10;51.40
43995;DHT22;51687;52.160;5.298;2023-02-04T14:58:18;15.10;51.00
43995;DHT22;51687;52.160;5.298;2023-02-04T15:00:45;15.10;51.50
43995;DHT22;51687;52.160;5.298;2023-02-04T15:03:12;15.10;51.50
43995;DHT22;51687;52.160;5.298;2023-02-04T15:05:39;15.10;51.30
43995;DHT22;51687;52.160;5.298;2023-02-04T15:08:06;15.10;52.30
43995;DHT22;51687;52.160;5.298;2023-02-04T15:10:32;15.10;51.20
43995;DHT22;51687;52.160;5.298;2023-02-04T15:13:00;15.10;51.60
43995;DHT22;51687;52.160;5.298;2023-02-04T15:15:26;15.10;51.60
43995;DHT22;51687;52.160;5.298;2023-02-04T15:17:53;15.10;51.80
43995;DHT22;51687;52.160;5.298;2023-02-04T15:20:20;15.10;52.10
43995;DHT22;51687;52.160;5.298;2023-02-04T15:22:46;15.10;52.50
43995;DHT22;51687;52.160;5.298;2023-02-04T15:25:18;15.10;52.30
43995;DHT22;51687;52.160;5.298;2023-02-04T15:27:44;15.10;52.20
43995;DHT22;51687;52.160;5.298;2023-02-04T15:30:11;15.10;52.60
43995;DHT22;51687;52.160;5.298;2023-02-04T15:32:38;15.10;52.70
43995;DHT22;51687;52.160;5.298;2023-02-04T15:35:07;15.20;52.40
43995;DHT22;51687;52.160;5.298;2023-02-04T15:37:34;15.20;52.10
43995;DHT22;51687;52.160;5.298;2023-02-04T15:40:01;15.30;52.40
43995;DHT22;51687;52.160;5.298;2023-02-04T15:42:28;15.30;52.40
43995;DHT22;51687;52.160;5.298;2023-02-04T15:44:55;15.30;52.60
43995;DHT22;51687;52.160;5.298;2023-02-04T15:47:21;15.30;52.60
43995;DHT22;51687;52.160;5.298;2023-02-04T15:49:48;15.30;52.20
43995;DHT22;51687;52.160;5.298;2023-02-04T15:52:15;15.40;52.10
43995;DHT22;51687;52.160;5.298;2023-02-04T15:54:51;15.30;52.60
43995;DHT22;51687;52.160;5.298;2023-02-04T15:57:17;15.40;53.10
43995;DHT22;51687;52.160;5.298;2023-02-04T15:59:44;15.40;52.90
43995;DHT22;51687;52.160;5.298;2023-02-04T16:02:11;15.40;53.30
43995;DHT22;51687;52.160;5.298;2023-02-04T16:04:38;15.40;53.70
43995;DHT22;51687;52.160;5.298;2023-02-04T16:07:06;15.40;54.20
43995;DHT22;51687;52.160;5.298;2023-02-04T16:09:34;15.40;54.20
43995;DHT22;51687;52.160;5.298;2023-02-04T16:12:01;15.40;54.60
43995;DHT22;51687;52.160;5.298;2023-02-04T16:14:28;15.30;54.70
43995;DHT22;51687;52.160;5.298;2023-02-04T16:16:54;15.30;54.90
43995;DHT22;51687;52.160;5.298;2023-02-04T16:19:21;15.30;55.00
43995;DHT22;51687;52.160;5.298;2023-02-04T16:21:48;15.30;55.20
43995;DHT22;51687;52.160;5.298;2023-02-04T16:24:15;15.30;55.70
43995;DHT22;51687;52.160;5.298;2023-02-04T16:26:44;15.30;55.90
43995;DHT22;51687;52.160;5.298;2023-02-04T16:29:11;15.30;56.00
43995;DHT22;51687;52.160;5.298;2023-02-04T16:31:38;15.30;55.90
43995;DHT22;51687;52.160;5.298;2023-02-04T16:34:04;15.30;55.90
43995;DHT22;51687;52.160;5.298;2023-02-04T16:36:31;15.30;56.20
43995;DHT22;51687;52.160;5.298;2023-02-04T16:38:58;15.30;55.80
43995;DHT22;51687;52.160;5.298;2023-02-04T16:41:25;15.40;55.80
43995;DHT22;51687;52.160;5.298;2023-02-04T16:43:52;15.40;55.90
43995;DHT22;51687;52.160;5.298;2023-02-04T16:46:18;15.40;55.80
43995;DHT22;51687;52.160;5.298;2023-02-04T16:48:45;15.40;55.90
43995;DHT22;51687;52.160;5.298;2023-02-04T16:51:12;15.50;56.00
43995;DHT22;51687;52.160;5.298;2023-02-04T16:53:39;15.50;56.00
43995;DHT22;51687;52.160;5.298;2023-02-04T16:56:06;15.50;56.20
43995;DHT22;51687;52.160;5.298;2023-02-04T16:58:32;15.50;56.20
43995;DHT22;51687;52.160;5.298;2023-02-04T17:00:59;15.60;56.30
43995;DHT22;51687;52.160;5.298;2023-02-04T17:03:26;15.50;56.00
43995;DHT22;51687;52.160;5.298;2023-02-04T17:05:53;15.50;56.10
43995;DHT22;51687;52.160;5.298;2023-02-04T17:08:20;15.50;55.90
43995;DHT22;51687;52.160;5.298;2023-02-04T17:10:48;15.60;55.90
43995;DHT22;51687;52.160;5.298;2023-02-04T17:13:33;15.60;55.90
43995;DHT22;51687;52.160;5.298;2023-02-04T17:15:59;15.80;56.20
43995;DHT22;51687;52.160;5.298;2023-02-04T17:18:28;15.80;55.70
43995;DHT22;51687;52.160;5.298;2023-02-04T17:20:55;15.80;55.50
43995;DHT22;51687;52.160;5.298;2023-02-04T18:05:26;15.80;55.50
43995;DHT22;51687;52.160;5.298;2023-02-04T18:08:18;15.50;56.50
43995;DHT22;51687;52.160;5.298;2023-02-04T18:10:47;15.40;56.80